createdAt,value
2022-12-24T00:01:46.630Z,76.39
2022-12-24T00:04:13.995Z,77.80
2022-12-24T00:06:41.670Z,77.65
2022-12-24T00:09:10.381Z,77.63
2022-12-24T00:11:37.976Z,76.47
2022-12-24T00:14:05.794Z,75.59
2022-12-24T00:16:33.413Z,76.00
2022-12-24T00:19:00.863Z,75.98
2022-12-24T00:21:29.335Z,76.67
2022-12-24T00:23:56.728Z,77.22
2022-12-24T00:26:24.150Z,77.42
2022-12-24T00:28:51.680Z,77.31
2022-12-24T00:31:19.832Z,77.23
2022-12-24T00:33:47.954Z,76.55
2022-12-24T00:36:16.254Z,76.66
2022-12-24T00:38:44.666Z,77.01
2022-12-24T00:41:25.357Z,77.03
2022-12-24T00:43:54.939Z,76.86
2022-12-24T00:46:23.755Z,77.29
2022-12-24T00:48:52.015Z,76.72
2022-12-24T00:51:21.094Z,76.07
2022-12-24T00:53:49.413Z,76.31
2022-12-24T00:56:17.231Z,76.79
2022-12-24T00:58:44.922Z,77.11
2022-12-24T01:01:13.016Z,77.05
2022-12-24T01:03:41.138Z,77.26
2022-12-24T01:06:14.846Z,76.86
2022-12-24T01:08:43.015Z,76.60
2022-12-24T01:14:00.208Z,76.00
2022-12-24T01:16:27.725Z,76.10
2022-12-24T01:18:55.364Z,76.45
2022-12-24T01:21:22.841Z,77.16
2022-12-24T01:23:50.989Z,76.66
2022-12-24T01:26:18.373Z,76.77
2022-12-24T01:28:45.943Z,76.34
2022-12-24T01:31:14.722Z,75.52
2022-12-24T01:33:43.558Z,75.47
2022-12-24T01:36:11.309Z,75.34
2022-12-24T01:38:38.744Z,75.90
2022-12-24T01:41:24.538Z,76.30
2022-12-24T01:43:52.153Z,76.68
2022-12-24T01:46:30.431Z,76.95
2022-12-24T01:49:04.832Z,76.91
2022-12-24T01:51:42.990Z,76.13
2022-12-24T01:54:16.373Z,77.26
2022-12-24T01:56:49.352Z,76.12
2022-12-24T01:59:20.321Z,75.93
2022-12-24T02:01:50.288Z,77.05
2022-12-24T02:04:29.960Z,76.76
2022-12-24T02:06:57.864Z,75.31
2022-12-24T02:09:25.925Z,75.05
2022-12-24T02:11:53.613Z,75.37
2022-12-24T02:14:21.816Z,75.89
2022-12-24T02:16:58.361Z,76.42
2022-12-24T02:20:03.604Z,76.61
2022-12-24T02:22:50.107Z,77.36
2022-12-24T02:25:30.288Z,76.88
2022-12-24T02:27:57.740Z,76.59
2022-12-24T02:30:46.150Z,76.80
2022-12-24T02:33:34.146Z,76.48
2022-12-24T02:36:11.691Z,77.24
2022-12-24T02:38:47.619Z,76.32
2022-12-24T02:42:13.221Z,75.93
2022-12-24T02:45:02.163Z,76.54
2022-12-24T02:47:34.064Z,76.91
2022-12-24T02:50:05.687Z,76.20
2022-12-24T02:52:45.235Z,77.13
2022-12-24T02:55:18.044Z,77.44
2022-12-24T02:58:00.637Z,77.28
2022-12-24T03:00:37.639Z,76.66
2022-12-24T03:03:42.426Z,76.50
2022-12-24T03:06:19.935Z,75.82
2022-12-24T03:09:12.703Z,77.04
2022-12-24T03:11:48.893Z,76.98
2022-12-24T03:14:18.929Z,76.77
2022-12-24T03:16:47.115Z,77.03
2022-12-24T03:19:14.728Z,76.35
2022-12-24T03:21:43.052Z,75.93
2022-12-24T03:24:11.300Z,75.43
2022-12-24T03:26:39.774Z,76.00
2022-12-24T03:29:08.429Z,76.53
2022-12-24T03:31:48.451Z,77.11
2022-12-24T03:34:17.009Z,77.55
2022-12-24T03:36:45.505Z,77.65
2022-12-24T03:39:12.837Z,77.57
2022-12-24T03:41:40.304Z,76.80
2022-12-24T03:44:07.832Z,76.92
2022-12-24T03:46:35.235Z,77.87
2022-12-24T03:49:02.711Z,78.12
2022-12-24T03:51:30.223Z,78.10
2022-12-24T03:53:58.309Z,77.89
2022-12-24T03:56:26.579Z,77.72
2022-12-24T03:58:54.175Z,77.32
2022-12-24T04:01:21.731Z,77.81
2022-12-24T04:06:39.730Z,78.23
2022-12-24T04:09:07.075Z,77.69
2022-12-24T04:11:34.696Z,76.95
2022-12-24T04:14:02.181Z,76.20
2022-12-24T04:16:29.910Z,76.51
2022-12-24T04:18:57.374Z,76.84
2022-12-24T04:21:25.011Z,77.76
2022-12-24T04:23:52.529Z,77.73
2022-12-24T04:26:20.014Z,77.80
2022-12-24T04:28:47.461Z,77.54
2022-12-24T04:31:17.843Z,77.70
2022-12-24T04:33:46.023Z,77.36
2022-12-24T04:36:19.989Z,76.89
2022-12-24T04:38:48.919Z,77.19
2022-12-24T04:41:25.621Z,76.81
2022-12-24T04:43:55.085Z,77.39
2022-12-24T04:46:25.428Z,77.80
2022-12-24T04:48:55.000Z,78.57
2022-12-24T04:51:23.833Z,78.26
2022-12-24T04:53:51.704Z,78.21
2022-12-24T04:56:22.883Z,77.55
2022-12-24T04:58:51.463Z,78.25
2022-12-24T05:01:39.272Z,77.41
2022-12-24T05:04:07.220Z,78.47
2022-12-24T05:06:35.245Z,78.88
2022-12-24T05:09:02.874Z,78.83
2022-12-24T05:11:31.059Z,79.75
2022-12-24T05:13:58.703Z,79.56
2022-12-24T05:16:26.235Z,79.47
2022-12-24T05:18:54.187Z,78.22
2022-12-24T05:21:23.899Z,78.52
2022-12-24T05:26:57.752Z,77.91
2022-12-24T05:29:25.466Z,77.29
2022-12-24T05:31:53.146Z,77.11
2022-12-24T05:34:20.490Z,77.04
2022-12-24T05:39:29.836Z,78.29
2022-12-24T05:41:57.279Z,77.73
2022-12-24T05:44:24.773Z,77.43
2022-12-24T05:46:52.172Z,77.44
2022-12-24T05:49:19.836Z,77.39
2022-12-24T05:51:47.259Z,77.92
2022-12-24T05:54:14.872Z,78.71
2022-12-24T05:56:42.366Z,78.36
2022-12-24T05:59:10.070Z,77.81
2022-12-24T06:01:37.552Z,77.61
2022-12-24T06:04:05.658Z,77.87
2022-12-24T06:06:33.171Z,76.90
2022-12-24T06:09:00.881Z,78.08
2022-12-24T06:11:30.356Z,77.84
2022-12-24T06:13:57.924Z,77.65
2022-12-24T06:16:26.210Z,77.97
2022-12-24T06:18:54.104Z,78.08
2022-12-24T06:21:21.560Z,78.41
2022-12-24T06:23:49.095Z,78.54
2022-12-24T06:26:19.886Z,77.77
2022-12-24T06:28:50.255Z,77.64
2022-12-24T06:31:20.911Z,77.41
2022-12-24T06:33:49.040Z,76.43
2022-12-24T06:36:19.654Z,76.75
2022-12-24T06:38:48.144Z,76.83
2022-12-24T06:41:16.990Z,76.92
2022-12-24T06:43:49.375Z,77.45
2022-12-24T06:46:17.835Z,77.65
2022-12-24T06:48:45.815Z,77.71
2022-12-24T06:51:14.957Z,76.87
2022-12-24T06:56:27.525Z,76.92
2022-12-24T06:58:58.764Z,77.54
2022-12-24T07:01:29.276Z,78.09
2022-12-24T07:03:56.868Z,77.22
2022-12-24T07:06:29.998Z,77.01
2022-12-24T07:08:57.750Z,77.06
2022-12-24T07:11:26.621Z,77.69
2022-12-24T07:13:54.219Z,77.40
2022-12-24T07:16:22.018Z,77.92
2022-12-24T07:18:49.728Z,77.79
2022-12-24T07:21:17.280Z,77.63
2022-12-24T07:23:44.769Z,77.52
2022-12-24T07:26:18.152Z,76.65
2022-12-24T07:28:45.636Z,77.17
2022-12-24T07:31:13.198Z,76.12
2022-12-24T07:33:40.849Z,77.19
2022-12-24T07:36:14.813Z,76.75
2022-12-24T07:38:42.393Z,76.25
2022-12-24T07:41:09.793Z,76.84
2022-12-24T07:43:37.466Z,76.81
2022-12-24T07:46:05.200Z,77.41
2022-12-24T07:48:33.394Z,76.46
2022-12-24T07:51:01.413Z,77.21
2022-12-24T07:53:30.152Z,77.71
2022-12-24T07:55:58.722Z,78.17
2022-12-24T07:58:26.640Z,77.95
2022-12-24T08:01:00.648Z,77.02
2022-12-24T08:03:28.623Z,77.18
2022-12-24T08:05:56.347Z,76.70
2022-12-24T08:08:23.842Z,77.13
2022-12-24T08:10:51.555Z,76.58
2022-12-24T08:13:19.221Z,76.18
2022-12-24T08:15:46.755Z,76.63
2022-12-24T08:18:14.326Z,77.79
2022-12-24T08:20:42.089Z,77.64
2022-12-24T08:23:09.794Z,77.21
2022-12-24T08:25:37.908Z,76.95
2022-12-24T08:28:06.585Z,77.91
2022-12-24T08:30:34.166Z,78.01
2022-12-24T08:33:02.106Z,77.47
2022-12-24T08:35:29.727Z,76.76
2022-12-24T08:37:57.239Z,76.06
2022-12-24T08:40:24.964Z,76.63
2022-12-24T08:42:52.596Z,76.13
2022-12-24T08:45:20.556Z,75.73
2022-12-24T08:47:48.652Z,76.34
2022-12-24T08:50:16.533Z,77.56
2022-12-24T08:52:44.266Z,76.93
2022-12-24T08:55:11.849Z,76.07
2022-12-24T08:57:40.041Z,75.76
2022-12-24T09:00:08.854Z,75.91
2022-12-24T09:02:36.382Z,76.99
2022-12-24T09:05:04.788Z,76.25
2022-12-24T09:07:32.292Z,76.49
2022-12-24T09:10:00.273Z,77.26
2022-12-24T09:12:27.698Z,76.15
2022-12-24T09:15:04.523Z,75.45
2022-12-24T09:17:36.636Z,76.60
2022-12-24T09:20:07.195Z,76.17
2022-12-24T09:22:37.392Z,76.23
2022-12-24T09:25:06.580Z,75.61
2022-12-24T09:27:34.139Z,76.20
2022-12-24T09:30:01.562Z,76.46
2022-12-24T09:32:30.680Z,76.11
2022-12-24T09:34:58.338Z,77.03
2022-12-24T09:37:26.035Z,76.73
2022-12-24T09:39:53.597Z,76.63
2022-12-24T09:42:39.158Z,76.27
2022-12-24T09:45:24.870Z,76.46
2022-12-24T09:47:57.868Z,76.94
2022-12-24T09:50:32.063Z,76.97
2022-12-24T09:53:04.921Z,76.84
2022-12-24T09:55:46.717Z,76.46
2022-12-24T09:58:24.206Z,77.25
2022-12-24T10:00:52.927Z,77.58
2022-12-24T10:03:20.605Z,76.88
2022-12-24T10:05:53.916Z,76.66
2022-12-24T10:08:32.284Z,76.06
2022-12-24T10:11:15.329Z,76.85
2022-12-24T10:14:12.047Z,77.02
2022-12-24T10:19:58.701Z,77.91
2022-12-24T10:22:54.790Z,77.12
2022-12-24T10:25:37.994Z,77.46
2022-12-24T10:28:14.758Z,77.29
2022-12-24T10:30:43.811Z,77.64
2022-12-24T10:33:20.645Z,77.43
2022-12-24T10:35:54.211Z,77.22
2022-12-24T10:38:21.663Z,76.96
2022-12-24T10:40:51.998Z,76.66
2022-12-24T10:43:25.247Z,76.23
2022-12-24T10:46:00.139Z,75.84
2022-12-24T10:48:36.753Z,76.69
2022-12-24T10:51:13.589Z,76.90
2022-12-24T10:53:47.416Z,76.88
2022-12-24T10:56:17.812Z,76.88
2022-12-24T10:58:51.169Z,76.27
2022-12-24T11:01:19.114Z,76.38
2022-12-24T11:04:00.005Z,76.93
2022-12-24T11:06:27.682Z,77.78
2022-12-24T11:09:12.481Z,77.45
2022-12-24T11:14:40.459Z,77.00
2022-12-24T11:17:08.377Z,77.60
2022-12-24T11:19:40.358Z,77.45
2022-12-24T11:22:31.597Z,76.99
2022-12-24T11:25:07.614Z,76.91
2022-12-24T11:27:47.688Z,77.51
2022-12-24T11:30:16.065Z,78.02
2022-12-24T11:32:56.756Z,77.95
2022-12-24T11:35:26.893Z,77.13
2022-12-24T11:38:03.501Z,76.48
2022-12-24T11:40:58.641Z,76.94
2022-12-24T11:43:44.675Z,77.05
2022-12-24T11:46:37.457Z,77.26
2022-12-24T11:52:13.002Z,76.96
2022-12-24T11:55:08.894Z,77.32
2022-12-24T11:57:55.961Z,77.71
2022-12-24T12:00:23.423Z,76.75
2022-12-24T12:05:39.503Z,77.78
2022-12-24T12:08:20.621Z,77.40
2022-12-24T12:10:52.463Z,76.96
2022-12-24T12:13:24.735Z,76.95
2022-12-24T12:15:58.172Z,76.68
2022-12-24T12:18:33.113Z,77.18
2022-12-24T12:21:06.692Z,77.41
2022-12-24T12:23:37.311Z,77.09
2022-12-24T12:26:18.166Z,76.59
2022-12-24T12:28:59.666Z,77.15
2022-12-24T12:31:45.408Z,76.38
2022-12-24T12:34:21.271Z,76.81
2022-12-24T12:36:53.817Z,76.27
2022-12-24T12:39:21.306Z,76.06
2022-12-24T12:45:27.027Z,76.15
2022-12-24T12:48:04.596Z,76.32
2022-12-24T12:50:51.883Z,75.86
2022-12-24T12:54:00.731Z,75.43
2022-12-24T12:56:34.005Z,75.60
2022-12-24T12:59:19.581Z,76.53
2022-12-24T13:02:25.563Z,76.74
2022-12-24T13:04:53.155Z,76.98
2022-12-24T13:07:38.036Z,77.06
2022-12-24T13:13:20.344Z,77.86
2022-12-24T13:16:36.182Z,77.32
2022-12-24T13:19:47.362Z,77.76
2022-12-24T13:22:21.600Z,77.61
2022-12-24T13:24:52.688Z,78.15
2022-12-24T13:27:25.774Z,78.00
2022-12-24T13:30:21.082Z,77.44
2022-12-24T13:32:50.350Z,76.82
2022-12-24T13:35:20.853Z,77.39
2022-12-24T13:37:49.340Z,77.29
2022-12-24T13:40:24.271Z,77.65
2022-12-24T13:43:07.333Z,77.41
2022-12-24T13:45:34.951Z,77.23
2022-12-24T13:48:11.464Z,76.70
2022-12-24T13:50:56.156Z,77.27
2022-12-24T13:53:33.245Z,77.76
2022-12-24T13:56:29.132Z,79.11
2022-12-24T13:59:36.142Z,78.91
2022-12-24T14:02:18.781Z,78.50
2022-12-24T14:04:51.171Z,78.51
2022-12-24T14:07:20.934Z,77.77
2022-12-24T14:09:51.462Z,78.24
2022-12-24T14:12:47.205Z,77.78
2022-12-24T14:15:50.758Z,77.69
2022-12-24T14:18:25.132Z,78.04
2022-12-24T14:20:56.776Z,78.42
2022-12-24T14:23:41.582Z,78.17
2022-12-24T14:26:16.107Z,77.61
2022-12-24T14:28:58.232Z,77.43
2022-12-24T14:31:25.984Z,77.31
2022-12-24T14:34:06.103Z,77.54
2022-12-24T14:36:34.132Z,77.91
2022-12-24T14:39:02.164Z,77.98
2022-12-24T14:41:49.750Z,78.52
2022-12-24T14:44:29.606Z,78.78
2022-12-24T14:47:07.371Z,78.41
2022-12-24T14:49:41.510Z,79.03
2022-12-24T14:53:03.431Z,78.92
2022-12-24T14:55:29.866Z,78.62
2022-12-24T14:58:34.066Z,78.03
2022-12-24T15:01:27.373Z,77.15
2022-12-24T15:04:10.341Z,77.75
2022-12-24T15:06:42.876Z,78.30
2022-12-24T15:09:31.900Z,78.71
2022-12-24T15:12:03.669Z,78.64
2022-12-24T15:14:40.513Z,79.19
2022-12-24T15:19:55.244Z,78.87
2022-12-24T15:22:29.779Z,78.23
2022-12-24T15:24:57.710Z,78.95
2022-12-24T15:27:32.222Z,79.07
2022-12-24T15:30:15.521Z,78.51
2022-12-24T15:32:43.932Z,78.75
2022-12-24T15:35:30.977Z,78.21
2022-12-24T15:37:59.780Z,78.12
2022-12-24T15:43:12.033Z,78.20
2022-12-24T15:45:46.036Z,77.57
2022-12-24T15:48:21.461Z,77.77
2022-12-24T15:50:51.947Z,78.63
2022-12-24T15:56:36.320Z,78.09
2022-12-24T15:59:26.417Z,77.58
2022-12-24T16:01:54.339Z,77.30
2022-12-24T16:04:27.066Z,77.38
2022-12-24T16:06:59.565Z,77.49
2022-12-24T16:09:32.744Z,77.62
2022-12-24T16:12:03.447Z,77.16
2022-12-24T16:14:33.684Z,77.07
2022-12-24T16:22:40.787Z,76.01
2022-12-24T16:25:28.859Z,75.72
2022-12-24T16:28:00.294Z,75.50
2022-12-24T16:30:28.657Z,75.12
2022-12-24T16:32:56.219Z,74.84
2022-12-24T16:35:28.851Z,74.69
2022-12-24T16:37:56.401Z,74.92
2022-12-24T16:40:27.582Z,75.03
2022-12-24T16:43:15.773Z,75.18
2022-12-24T16:45:44.357Z,75.24
2022-12-24T16:48:19.554Z,74.58
2022-12-24T16:50:47.581Z,74.88
2022-12-24T16:53:17.886Z,74.17
2022-12-24T16:58:33.235Z,73.96
2022-12-24T17:01:07.141Z,73.80
2022-12-24T17:06:21.109Z,73.65
2022-12-24T17:08:51.395Z,73.79
2022-12-24T17:11:23.312Z,74.06
2022-12-24T17:13:50.879Z,73.58
2022-12-24T17:16:18.307Z,73.75
2022-12-24T17:18:46.053Z,73.39
2022-12-24T17:21:14.192Z,73.26
2022-12-24T17:26:27.474Z,73.32
2022-12-24T17:28:56.565Z,72.42
2022-12-24T17:31:24.837Z,73.77
2022-12-24T17:33:53.207Z,72.99
2022-12-24T17:36:21.375Z,73.24
2022-12-24T17:38:48.877Z,73.13
2022-12-24T17:41:19.539Z,73.20
2022-12-24T17:43:48.399Z,72.33
2022-12-24T17:46:25.270Z,72.03
2022-12-24T17:48:52.952Z,72.53
2022-12-24T17:51:22.408Z,71.75
2022-12-24T17:53:50.569Z,72.50
2022-12-24T17:59:03.728Z,72.08
2022-12-24T18:01:31.232Z,72.20
2022-12-24T18:04:00.546Z,72.06
2022-12-24T18:06:31.326Z,71.55
2022-12-24T18:11:45.621Z,72.33
2022-12-24T18:22:29.040Z,71.19
2022-12-24T18:24:56.346Z,71.30
2022-12-24T18:27:23.751Z,70.70
2022-12-24T18:29:51.249Z,70.47
2022-12-24T18:32:19.020Z,69.87
2022-12-24T18:34:46.719Z,69.98
2022-12-24T18:39:59.081Z,70.43
2022-12-24T18:42:26.717Z,70.25
2022-12-24T18:44:54.238Z,69.61
2022-12-24T18:50:07.459Z,68.97
2022-12-24T18:52:36.168Z,69.05
2022-12-24T18:57:48.640Z,69.60
2022-12-24T19:00:16.239Z,70.20
2022-12-24T19:02:43.873Z,69.95
2022-12-24T19:05:11.833Z,69.76
2022-12-24T19:10:24.380Z,70.63
2022-12-24T19:12:51.905Z,70.39
2022-12-24T19:15:20.448Z,70.64
2022-12-24T19:17:47.881Z,70.45
2022-12-24T19:23:02.539Z,69.15
2022-12-24T19:25:29.972Z,69.24
2022-12-24T19:27:57.411Z,68.78
2022-12-24T19:33:10.299Z,70.57
2022-12-24T19:35:38.101Z,70.02
2022-12-24T19:38:05.603Z,69.57
2022-12-24T19:40:36.541Z,69.60
2022-12-24T19:43:04.612Z,69.19
2022-12-24T19:45:32.032Z,69.60
2022-12-24T19:47:59.581Z,70.19
2022-12-24T19:50:27.141Z,69.77
2022-12-24T19:52:54.674Z,68.88
2022-12-24T19:55:22.768Z,69.55
2022-12-24T19:57:52.612Z,69.84
2022-12-24T20:00:20.630Z,69.61
2022-12-24T20:02:48.035Z,69.10
2022-12-24T20:08:00.505Z,69.60
2022-12-24T20:13:12.792Z,68.90
2022-12-24T20:15:42.431Z,69.44
2022-12-24T20:18:11.664Z,69.53
2022-12-24T20:20:39.627Z,69.30
2022-12-24T20:23:08.771Z,69.25
2022-12-24T20:25:37.816Z,68.70
2022-12-24T20:28:06.031Z,68.88
2022-12-24T20:30:37.051Z,67.87
2022-12-24T20:33:06.093Z,67.18
2022-12-24T20:35:36.154Z,67.42
2022-12-24T20:38:03.665Z,67.13
2022-12-24T20:40:31.084Z,66.57
2022-12-24T20:42:58.721Z,67.24
2022-12-24T20:45:26.511Z,66.74
2022-12-24T20:50:41.519Z,66.40
2022-12-24T20:55:54.554Z,66.53
2022-12-24T20:58:22.058Z,66.55
2022-12-24T21:00:50.269Z,66.51
2022-12-24T21:03:18.561Z,66.24
2022-12-24T21:05:47.789Z,65.50
2022-12-24T21:08:16.203Z,65.20
2022-12-24T21:10:43.521Z,65.47
2022-12-24T21:13:10.875Z,65.55
2022-12-24T21:15:40.434Z,65.44
2022-12-24T21:20:56.703Z,65.33
2022-12-24T21:23:24.212Z,65.70
2022-12-24T21:26:03.207Z,65.11
2022-12-24T21:28:31.686Z,65.62
2022-12-24T21:30:59.381Z,65.84
2022-12-24T21:33:27.228Z,66.15
2022-12-24T21:35:59.174Z,65.78
2022-12-24T21:38:27.330Z,65.70
2022-12-24T21:41:07.323Z,64.89
2022-12-24T21:46:25.413Z,64.65
2022-12-24T21:49:12.789Z,64.38
2022-12-24T21:51:41.614Z,64.10
2022-12-24T21:54:24.130Z,64.82
2022-12-24T21:57:11.987Z,65.55
2022-12-24T22:02:30.643Z,65.69
2022-12-24T22:08:22.000Z,64.95
2022-12-24T22:14:04.726Z,65.85
2022-12-24T22:16:32.265Z,65.49
2022-12-24T22:18:59.716Z,65.04
2022-12-24T22:21:27.088Z,64.95
2022-12-24T22:23:56.057Z,65.42
2022-12-24T22:26:23.423Z,66.48
2022-12-24T22:28:50.998Z,65.40
2022-12-24T22:31:26.110Z,65.18
2022-12-24T22:33:54.170Z,64.23
2022-12-24T22:36:21.607Z,65.37
2022-12-24T22:38:49.188Z,65.53
2022-12-24T22:41:16.997Z,65.73
2022-12-24T22:43:45.042Z,65.68
2022-12-24T22:48:58.925Z,64.54
2022-12-24T22:54:19.833Z,65.00
2022-12-24T22:56:47.982Z,64.77
2022-12-24T22:59:15.813Z,64.55
2022-12-24T23:01:45.748Z,65.08
2022-12-24T23:04:14.418Z,64.79
2022-12-24T23:06:42.381Z,65.02
2022-12-24T23:11:53.965Z,64.07
2022-12-24T23:14:40.970Z,63.22
2022-12-24T23:17:09.176Z,62.73
2022-12-24T23:19:36.991Z,62.86
2022-12-24T23:22:06.467Z,63.36
2022-12-24T23:24:35.495Z,62.78
2022-12-24T23:27:03.177Z,63.39
2022-12-24T23:29:32.358Z,64.56
2022-12-24T23:32:00.172Z,64.00
2022-12-24T23:34:27.731Z,64.03
2022-12-24T23:36:55.518Z,63.42
2022-12-24T23:39:23.080Z,63.76
2022-12-24T23:41:50.538Z,63.77
2022-12-24T23:44:17.959Z,63.74
2022-12-24T23:49:30.411Z,63.76
2022-12-24T23:54:42.906Z,64.11
2022-12-24T23:57:10.535Z,64.40
2022-12-24T23:59:38.047Z,65.10
